sensor_id;sensor_type;location;lat;lon;timestamp;temperature;humidity
36800;DHT22;22752;51.960;5.886;2023-07-31T00:00:26;16.30;99.90
36800;DHT22;22752;51.960;5.886;2023-07-31T00:02:52;16.30;99.90
36800;DHT22;22752;51.960;5.886;2023-07-31T00:05:18;16.30;99.90
36800;DHT22;22752;51.960;5.886;2023-07-31T00:07:44;16.30;99.90
36800;DHT22;22752;51.960;5.886;2023-07-31T00:10:09;16.40;99.90
36800;DHT22;22752;51.960;5.886;2023-07-31T00:12:35;16.40;99.90
36800;DHT22;22752;51.960;5.886;2023-07-31T00:15:01;16.40;99.90
36800;DHT22;22752;51.960;5.886;2023-07-31T00:17:28;16.40;99.90
36800;DHT22;22752;51.960;5.886;2023-07-31T00:19:53;16.50;99.90
36800;DHT22;22752;51.960;5.886;2023-07-31T00:22:19;16.40;99.90
36800;DHT22;22752;51.960;5.886;2023-07-31T00:24:44;16.50;99.90
36800;DHT22;22752;51.960;5.886;2023-07-31T00:27:10;16.50;99.90
36800;DHT22;22752;51.960;5.886;2023-07-31T00:29:36;16.50;99.90
36800;DHT22;22752;51.960;5.886;2023-07-31T00:32:01;16.50;99.90
36800;DHT22;22752;51.960;5.886;2023-07-31T00:34:27;16.50;99.90
36800;DHT22;22752;51.960;5.886;2023-07-31T00:36:53;16.50;99.90
36800;DHT22;22752;51.960;5.886;2023-07-31T00:39:18;16.60;99.90
36800;DHT22;22752;51.960;5.886;2023-07-31T00:41:44;16.60;99.90
36800;DHT22;22752;51.960;5.886;2023-07-31T00:44:10;16.60;99.90
36800;DHT22;22752;51.960;5.886;2023-07-31T00:46:36;16.60;99.90
36800;DHT22;22752;51.960;5.886;2023-07-31T00:49:02;16.60;99.90
36800;DHT22;22752;51.960;5.886;2023-07-31T00:51:28;16.60;99.90
36800;DHT22;22752;51.960;5.886;2023-07-31T00:53:53;16.70;99.90
36800;DHT22;22752;51.960;5.886;2023-07-31T00:56:21;16.70;99.90
36800;DHT22;22752;51.960;5.886;2023-07-31T00:58:47;16.70;99.90
36800;DHT22;22752;51.960;5.886;2023-07-31T01:01:13;16.70;99.90
36800;DHT22;22752;51.960;5.886;2023-07-31T01:03:39;16.80;99.90
36800;DHT22;22752;51.960;5.886;2023-07-31T01:12:07;17.00;99.90
36800;DHT22;22752;51.960;5.886;2023-07-31T01:14:36;17.00;99.90
36800;DHT22;22752;51.960;5.886;2023-07-31T01:17:01;17.10;99.90
36800;DHT22;22752;51.960;5.886;2023-07-31T01:19:27;17.10;99.90
36800;DHT22;22752;51.960;5.886;2023-07-31T01:22:16;17.10;99.90
36800;DHT22;22752;51.960;5.886;2023-07-31T01:27:30;17.10;99.90
36800;DHT22;22752;51.960;5.886;2023-07-31T01:30:20;17.10;99.90
36800;DHT22;22752;51.960;5.886;2023-07-31T01:32:47;17.20;99.90
36800;DHT22;22752;51.960;5.886;2023-07-31T01:35:14;17.20;99.90
36800;DHT22;22752;51.960;5.886;2023-07-31T01:37:40;17.20;99.90
36800;DHT22;22752;51.960;5.886;2023-07-31T01:40:08;17.20;99.90
36800;DHT22;22752;51.960;5.886;2023-07-31T01:42:33;17.20;99.90
36800;DHT22;22752;51.960;5.886;2023-07-31T01:44:59;17.20;99.90
36800;DHT22;22752;51.960;5.886;2023-07-31T01:47:25;17.20;99.90
36800;DHT22;22752;51.960;5.886;2023-07-31T01:49:50;17.10;99.90
36800;DHT22;22752;51.960;5.886;2023-07-31T01:52:16;17.20;99.90
36800;DHT22;22752;51.960;5.886;2023-07-31T01:54:41;17.20;99.90
36800;DHT22;22752;51.960;5.886;2023-07-31T01:57:07;17.20;99.90
36800;DHT22;22752;51.960;5.886;2023-07-31T01:59:33;17.10;99.90
36800;DHT22;22752;51.960;5.886;2023-07-31T02:01:58;17.10;99.90
36800;DHT22;22752;51.960;5.886;2023-07-31T02:04:24;17.10;99.90
36800;DHT22;22752;51.960;5.886;2023-07-31T02:06:49;17.10;99.90
36800;DHT22;22752;51.960;5.886;2023-07-31T02:09:15;17.10;99.90
36800;DHT22;22752;51.960;5.886;2023-07-31T02:11:41;17.10;99.90
36800;DHT22;22752;51.960;5.886;2023-07-31T02:14:06;17.10;99.90
36800;DHT22;22752;51.960;5.886;2023-07-31T02:16:32;17.10;99.90
36800;DHT22;22752;51.960;5.886;2023-07-31T02:18:58;17.10;99.90
36800;DHT22;22752;51.960;5.886;2023-07-31T02:21:23;17.10;99.90
36800;DHT22;22752;51.960;5.886;2023-07-31T02:23:49;17.10;99.90
36800;DHT22;22752;51.960;5.886;2023-07-31T02:26:14;17.10;99.90
36800;DHT22;22752;51.960;5.886;2023-07-31T02:28:41;17.10;99.90
36800;DHT22;22752;51.960;5.886;2023-07-31T02:31:08;17.10;99.90
36800;DHT22;22752;51.960;5.886;2023-07-31T02:33:34;17.00;99.90
36800;DHT22;22752;51.960;5.886;2023-07-31T02:36:00;17.10;99.90
36800;DHT22;22752;51.960;5.886;2023-07-31T02:38:25;17.00;99.90
36800;DHT22;22752;51.960;5.886;2023-07-31T02:40:51;17.00;99.90
36800;DHT22;22752;51.960;5.886;2023-07-31T02:43:17;17.00;99.90
36800;DHT22;22752;51.960;5.886;2023-07-31T02:45:42;17.00;99.90
36800;DHT22;22752;51.960;5.886;2023-07-31T02:48:08;17.00;99.90
36800;DHT22;22752;51.960;5.886;2023-07-31T02:50:34;17.00;99.90
36800;DHT22;22752;51.960;5.886;2023-07-31T02:53:00;17.00;99.90
36800;DHT22;22752;51.960;5.886;2023-07-31T02:55:25;17.00;99.90
36800;DHT22;22752;51.960;5.886;2023-07-31T02:57:51;17.10;99.90
36800;DHT22;22752;51.960;5.886;2023-07-31T03:00:17;17.10;99.90
36800;DHT22;22752;51.960;5.886;2023-07-31T03:02:43;17.00;99.90
36800;DHT22;22752;51.960;5.886;2023-07-31T03:05:09;17.10;99.90
36800;DHT22;22752;51.960;5.886;2023-07-31T03:07:34;17.00;99.90
36800;DHT22;22752;51.960;5.886;2023-07-31T03:10:00;17.00;99.90
36800;DHT22;22752;51.960;5.886;2023-07-31T03:12:26;17.10;99.90
36800;DHT22;22752;51.960;5.886;2023-07-31T03:14:51;17.00;99.90
36800;DHT22;22752;51.960;5.886;2023-07-31T03:17:17;17.00;99.90
36800;DHT22;22752;51.960;5.886;2023-07-31T03:19:42;17.00;99.90
36800;DHT22;22752;51.960;5.886;2023-07-31T03:22:08;17.00;99.90
36800;DHT22;22752;51.960;5.886;2023-07-31T03:24:34;17.00;99.90
36800;DHT22;22752;51.960;5.886;2023-07-31T03:26:59;17.00;99.90
36800;DHT22;22752;51.960;5.886;2023-07-31T03:29:25;17.00;99.90
36800;DHT22;22752;51.960;5.886;2023-07-31T03:31:52;17.00;99.90
36800;DHT22;22752;51.960;5.886;2023-07-31T03:34:18;17.00;99.90
36800;DHT22;22752;51.960;5.886;2023-07-31T03:36:43;17.00;99.90
36800;DHT22;22752;51.960;5.886;2023-07-31T03:39:09;17.00;99.90
36800;DHT22;22752;51.960;5.886;2023-07-31T03:41:35;17.00;99.90
36800;DHT22;22752;51.960;5.886;2023-07-31T03:44:01;16.90;99.90
36800;DHT22;22752;51.960;5.886;2023-07-31T03:46:26;16.90;99.90
36800;DHT22;22752;51.960;5.886;2023-07-31T03:48:52;16.90;99.90
36800;DHT22;22752;51.960;5.886;2023-07-31T03:51:18;16.90;99.90
36800;DHT22;22752;51.960;5.886;2023-07-31T03:53:44;17.00;99.90
36800;DHT22;22752;51.960;5.886;2023-07-31T03:56:10;16.90;99.90
36800;DHT22;22752;51.960;5.886;2023-07-31T03:58:35;16.90;99.90
36800;DHT22;22752;51.960;5.886;2023-07-31T04:01:02;16.90;99.90
36800;DHT22;22752;51.960;5.886;2023-07-31T04:03:28;16.90;99.90
36800;DHT22;22752;51.960;5.886;2023-07-31T04:05:55;16.90;99.90
36800;DHT22;22752;51.960;5.886;2023-07-31T04:08:21;16.90;99.90
36800;DHT22;22752;51.960;5.886;2023-07-31T04:10:47;16.90;99.90
36800;DHT22;22752;51.960;5.886;2023-07-31T04:13:13;16.90;99.90
36800;DHT22;22752;51.960;5.886;2023-07-31T04:15:39;16.90;99.90
36800;DHT22;22752;51.960;5.886;2023-07-31T04:18:05;16.90;99.90
36800;DHT22;22752;51.960;5.886;2023-07-31T04:20:30;16.90;99.90
36800;DHT22;22752;51.960;5.886;2023-07-31T04:22:56;17.00;99.90
36800;DHT22;22752;51.960;5.886;2023-07-31T04:25:22;17.00;99.90
36800;DHT22;22752;51.960;5.886;2023-07-31T04:27:47;17.00;99.90
36800;DHT22;22752;51.960;5.886;2023-07-31T04:30:13;17.00;99.90
36800;DHT22;22752;51.960;5.886;2023-07-31T04:32:39;17.00;99.90
36800;DHT22;22752;51.960;5.886;2023-07-31T04:35:05;17.00;99.90
36800;DHT22;22752;51.960;5.886;2023-07-31T04:37:31;17.00;99.90
36800;DHT22;22752;51.960;5.886;2023-07-31T04:39:57;17.00;99.90
36800;DHT22;22752;51.960;5.886;2023-07-31T04:42:22;17.10;99.90
36800;DHT22;22752;51.960;5.886;2023-07-31T04:44:48;17.10;99.90
36800;DHT22;22752;51.960;5.886;2023-07-31T04:47:14;17.10;99.90
36800;DHT22;22752;51.960;5.886;2023-07-31T04:49:39;17.10;99.90
36800;DHT22;22752;51.960;5.886;2023-07-31T04:52:05;17.10;99.90
36800;DHT22;22752;51.960;5.886;2023-07-31T04:54:31;17.10;99.90
36800;DHT22;22752;51.960;5.886;2023-07-31T04:56:56;17.10;99.90
36800;DHT22;22752;51.960;5.886;2023-07-31T04:59:22;17.10;99.90
36800;DHT22;22752;51.960;5.886;2023-07-31T05:01:48;17.10;99.90
36800;DHT22;22752;51.960;5.886;2023-07-31T05:04:14;17.10;99.90
36800;DHT22;22752;51.960;5.886;2023-07-31T05:06:40;17.10;99.90
36800;DHT22;22752;51.960;5.886;2023-07-31T05:09:06;17.10;99.90
36800;DHT22;22752;51.960;5.886;2023-07-31T05:11:31;17.10;99.90
36800;DHT22;22752;51.960;5.886;2023-07-31T05:13:57;17.10;99.90
36800;DHT22;22752;51.960;5.886;2023-07-31T05:16:23;17.10;99.90
36800;DHT22;22752;51.960;5.886;2023-07-31T05:18:48;17.10;99.90
36800;DHT22;22752;51.960;5.886;2023-07-31T05:21:14;17.20;99.90
36800;DHT22;22752;51.960;5.886;2023-07-31T05:23:40;17.20;99.90
36800;DHT22;22752;51.960;5.886;2023-07-31T05:26:06;17.20;99.90
36800;DHT22;22752;51.960;5.886;2023-07-31T05:28:34;17.20;99.90
36800;DHT22;22752;51.960;5.886;2023-07-31T05:31:04;17.20;99.90
36800;DHT22;22752;51.960;5.886;2023-07-31T05:33:29;17.20;99.90
36800;DHT22;22752;51.960;5.886;2023-07-31T05:35:56;17.10;99.90
36800;DHT22;22752;51.960;5.886;2023-07-31T05:38:22;17.10;99.90
36800;DHT22;22752;51.960;5.886;2023-07-31T05:40:48;17.10;99.90
36800;DHT22;22752;51.960;5.886;2023-07-31T05:43:13;17.10;99.90
36800;DHT22;22752;51.960;5.886;2023-07-31T05:45:40;17.00;99.90
36800;DHT22;22752;51.960;5.886;2023-07-31T05:48:06;17.00;99.90
36800;DHT22;22752;51.960;5.886;2023-07-31T05:50:31;17.00;99.90
36800;DHT22;22752;51.960;5.886;2023-07-31T05:52:57;17.00;99.90
36800;DHT22;22752;51.960;5.886;2023-07-31T05:55:23;17.00;99.90
36800;DHT22;22752;51.960;5.886;2023-07-31T05:57:49;16.90;99.90
36800;DHT22;22752;51.960;5.886;2023-07-31T06:00:15;16.90;99.90
36800;DHT22;22752;51.960;5.886;2023-07-31T06:02:41;16.90;99.90
36800;DHT22;22752;51.960;5.886;2023-07-31T06:05:07;16.90;99.90
36800;DHT22;22752;51.960;5.886;2023-07-31T06:07:33;16.90;99.90
36800;DHT22;22752;51.960;5.886;2023-07-31T06:09:58;17.00;99.90
36800;DHT22;22752;51.960;5.886;2023-07-31T06:12:30;17.00;99.90
36800;DHT22;22752;51.960;5.886;2023-07-31T06:14:56;17.00;99.90
36800;DHT22;22752;51.960;5.886;2023-07-31T06:17:22;17.10;99.90
36800;DHT22;22752;51.960;5.886;2023-07-31T06:19:48;17.10;99.90
36800;DHT22;22752;51.960;5.886;2023-07-31T06:22:14;17.20;99.90
36800;DHT22;22752;51.960;5.886;2023-07-31T06:24:39;17.20;99.90
36800;DHT22;22752;51.960;5.886;2023-07-31T06:27:05;17.20;99.90
36800;DHT22;22752;51.960;5.886;2023-07-31T06:29:31;17.20;99.90
36800;DHT22;22752;51.960;5.886;2023-07-31T06:31:57;17.20;99.90
36800;DHT22;22752;51.960;5.886;2023-07-31T06:34:23;17.20;99.90
36800;DHT22;22752;51.960;5.886;2023-07-31T06:36:49;17.20;99.90
36800;DHT22;22752;51.960;5.886;2023-07-31T06:39:14;17.20;99.90
36800;DHT22;22752;51.960;5.886;2023-07-31T06:41:40;17.30;99.90
36800;DHT22;22752;51.960;5.886;2023-07-31T06:44:06;17.30;99.90
36800;DHT22;22752;51.960;5.886;2023-07-31T06:46:31;17.30;99.90
36800;DHT22;22752;51.960;5.886;2023-07-31T06:48:57;17.40;99.90
36800;DHT22;22752;51.960;5.886;2023-07-31T06:51:23;17.40;99.90
36800;DHT22;22752;51.960;5.886;2023-07-31T06:53:48;17.40;99.90
36800;DHT22;22752;51.960;5.886;2023-07-31T06:56:14;17.40;99.90
36800;DHT22;22752;51.960;5.886;2023-07-31T06:58:39;17.40;99.90
36800;DHT22;22752;51.960;5.886;2023-07-31T07:01:05;17.40;99.90
36800;DHT22;22752;51.960;5.886;2023-07-31T07:03:31;17.40;99.90
36800;DHT22;22752;51.960;5.886;2023-07-31T07:05:57;17.40;99.90
36800;DHT22;22752;51.960;5.886;2023-07-31T07:08:24;17.40;99.90
36800;DHT22;22752;51.960;5.886;2023-07-31T07:10:50;17.40;99.90
36800;DHT22;22752;51.960;5.886;2023-07-31T07:13:15;17.40;99.90
36800;DHT22;22752;51.960;5.886;2023-07-31T07:15:41;17.50;99.90
36800;DHT22;22752;51.960;5.886;2023-07-31T07:18:07;17.50;99.90
36800;DHT22;22752;51.960;5.886;2023-07-31T07:20:32;17.60;99.90
36800;DHT22;22752;51.960;5.886;2023-07-31T07:22:58;17.60;99.90
36800;DHT22;22752;51.960;5.886;2023-07-31T07:25:24;17.70;99.90
36800;DHT22;22752;51.960;5.886;2023-07-31T07:27:49;17.70;99.90
36800;DHT22;22752;51.960;5.886;2023-07-31T07:30:15;17.80;99.90
36800;DHT22;22752;51.960;5.886;2023-07-31T07:32:41;17.80;99.90
36800;DHT22;22752;51.960;5.886;2023-07-31T07:35:07;17.80;99.90
36800;DHT22;22752;51.960;5.886;2023-07-31T07:37:32;17.80;99.90
36800;DHT22;22752;51.960;5.886;2023-07-31T07:39:59;17.70;99.90
36800;DHT22;22752;51.960;5.886;2023-07-31T07:42:24;17.70;99.90
36800;DHT22;22752;51.960;5.886;2023-07-31T07:44:50;17.70;99.90
36800;DHT22;22752;51.960;5.886;2023-07-31T07:47:16;17.70;99.90
36800;DHT22;22752;51.960;5.886;2023-07-31T07:49:41;17.70;99.90
36800;DHT22;22752;51.960;5.886;2023-07-31T07:52:07;17.70;99.90
36800;DHT22;22752;51.960;5.886;2023-07-31T07:54:33;17.70;99.90
36800;DHT22;22752;51.960;5.886;2023-07-31T07:56:59;17.70;99.90
36800;DHT22;22752;51.960;5.886;2023-07-31T07:59:25;17.70;99.90
36800;DHT22;22752;51.960;5.886;2023-07-31T08:01:50;17.70;99.90
36800;DHT22;22752;51.960;5.886;2023-07-31T08:04:16;17.80;99.90
36800;DHT22;22752;51.960;5.886;2023-07-31T08:06:41;17.80;99.90
36800;DHT22;22752;51.960;5.886;2023-07-31T08:09:07;17.80;99.90
36800;DHT22;22752;51.960;5.886;2023-07-31T08:11:34;17.80;99.90
36800;DHT22;22752;51.960;5.886;2023-07-31T08:14:00;17.80;99.90
36800;DHT22;22752;51.960;5.886;2023-07-31T08:16:25;17.80;99.90
36800;DHT22;22752;51.960;5.886;2023-07-31T08:18:51;17.90;99.90
36800;DHT22;22752;51.960;5.886;2023-07-31T08:21:17;17.90;99.90
36800;DHT22;22752;51.960;5.886;2023-07-31T08:23:42;17.90;99.90
36800;DHT22;22752;51.960;5.886;2023-07-31T08:26:13;17.90;99.90
36800;DHT22;22752;51.960;5.886;2023-07-31T08:28:39;18.00;99.90
36800;DHT22;22752;51.960;5.886;2023-07-31T08:31:05;18.00;99.90
36800;DHT22;22752;51.960;5.886;2023-07-31T08:33:31;18.10;99.90
36800;DHT22;22752;51.960;5.886;2023-07-31T08:35:57;18.20;99.90
36800;DHT22;22752;51.960;5.886;2023-07-31T08:38:22;18.20;99.90
36800;DHT22;22752;51.960;5.886;2023-07-31T08:40:51;18.20;99.90
36800;DHT22;22752;51.960;5.886;2023-07-31T08:43:16;18.30;99.90
36800;DHT22;22752;51.960;5.886;2023-07-31T08:45:42;18.30;99.90
36800;DHT22;22752;51.960;5.886;2023-07-31T08:48:08;18.30;99.90
36800;DHT22;22752;51.960;5.886;2023-07-31T08:50:34;18.30;99.90
36800;DHT22;22752;51.960;5.886;2023-07-31T08:53:00;18.30;99.90
36800;DHT22;22752;51.960;5.886;2023-07-31T08:55:27;18.40;99.90
36800;DHT22;22752;51.960;5.886;2023-07-31T08:57:54;18.40;99.90
36800;DHT22;22752;51.960;5.886;2023-07-31T09:00:21;18.40;99.90
36800;DHT22;22752;51.960;5.886;2023-07-31T09:03:08;18.50;99.90
36800;DHT22;22752;51.960;5.886;2023-07-31T09:05:35;18.50;99.90
36800;DHT22;22752;51.960;5.886;2023-07-31T09:08:02;18.50;99.90
36800;DHT22;22752;51.960;5.886;2023-07-31T09:10:29;18.50;99.90
36800;DHT22;22752;51.960;5.886;2023-07-31T09:12:56;18.50;99.90
36800;DHT22;22752;51.960;5.886;2023-07-31T09:15:22;18.50;99.90
36800;DHT22;22752;51.960;5.886;2023-07-31T09:17:59;18.50;99.90
36800;DHT22;22752;51.960;5.886;2023-07-31T09:20:25;18.50;99.90
36800;DHT22;22752;51.960;5.886;2023-07-31T09:22:52;18.50;99.90
36800;DHT22;22752;51.960;5.886;2023-07-31T09:25:19;18.40;99.90
36800;DHT22;22752;51.960;5.886;2023-07-31T09:30:12;18.40;99.90
36800;DHT22;22752;51.960;5.886;2023-07-31T09:32:37;18.50;99.90
36800;DHT22;22752;51.960;5.886;2023-07-31T09:35:14;18.50;99.90
36800;DHT22;22752;51.960;5.886;2023-07-31T09:37:43;18.50;99.90
36800;DHT22;22752;51.960;5.886;2023-07-31T09:40:09;18.50;99.90
36800;DHT22;22752;51.960;5.886;2023-07-31T09:42:49;18.50;99.90
36800;DHT22;22752;51.960;5.886;2023-07-31T09:45:15;18.60;99.90
36800;DHT22;22752;51.960;5.886;2023-07-31T09:47:46;18.60;99.90
36800;DHT22;22752;51.960;5.886;2023-07-31T09:50:14;18.70;99.90
36800;DHT22;22752;51.960;5.886;2023-07-31T09:52:41;18.80;99.90
36800;DHT22;22752;51.960;5.886;2023-07-31T09:55:08;18.80;99.90
36800;DHT22;22752;51.960;5.886;2023-07-31T09:57:35;18.80;99.90
36800;DHT22;22752;51.960;5.886;2023-07-31T10:00:01;18.80;99.90
36800;DHT22;22752;51.960;5.886;2023-07-31T10:02:27;18.80;99.90
36800;DHT22;22752;51.960;5.886;2023-07-31T10:04:57;18.90;99.90
36800;DHT22;22752;51.960;5.886;2023-07-31T10:07:26;19.00;99.90
36800;DHT22;22752;51.960;5.886;2023-07-31T10:09:54;19.10;99.90
36800;DHT22;22752;51.960;5.886;2023-07-31T10:12:22;19.10;99.90
36800;DHT22;22752;51.960;5.886;2023-07-31T10:14:51;19.10;99.90
36800;DHT22;22752;51.960;5.886;2023-07-31T10:17:18;19.10;99.90
36800;DHT22;22752;51.960;5.886;2023-07-31T10:19:45;19.10;99.90
36800;DHT22;22752;51.960;5.886;2023-07-31T10:22:11;19.10;99.90
36800;DHT22;22752;51.960;5.886;2023-07-31T10:24:37;19.20;99.90
36800;DHT22;22752;51.960;5.886;2023-07-31T10:27:04;19.30;99.90
36800;DHT22;22752;51.960;5.886;2023-07-31T10:29:30;19.50;99.90
36800;DHT22;22752;51.960;5.886;2023-07-31T10:31:57;19.60;99.90
36800;DHT22;22752;51.960;5.886;2023-07-31T10:34:24;19.60;99.90
36800;DHT22;22752;51.960;5.886;2023-07-31T10:36:49;19.60;99.90
36800;DHT22;22752;51.960;5.886;2023-07-31T10:39:35;19.50;99.90
36800;DHT22;22752;51.960;5.886;2023-07-31T10:42:12;19.40;99.90
36800;DHT22;22752;51.960;5.886;2023-07-31T10:44:43;19.40;99.90
36800;DHT22;22752;51.960;5.886;2023-07-31T10:47:08;19.40;99.90
36800;DHT22;22752;51.960;5.886;2023-07-31T10:49:34;19.50;99.90
36800;DHT22;22752;51.960;5.886;2023-07-31T10:52:03;19.50;99.90
36800;DHT22;22752;51.960;5.886;2023-07-31T10:54:29;19.60;99.90
36800;DHT22;22752;51.960;5.886;2023-07-31T10:56:56;19.60;99.90
36800;DHT22;22752;51.960;5.886;2023-07-31T10:59:26;19.80;99.90
36800;DHT22;22752;51.960;5.886;2023-07-31T11:01:55;19.90;99.90
36800;DHT22;22752;51.960;5.886;2023-07-31T11:04:27;19.90;99.90
36800;DHT22;22752;51.960;5.886;2023-07-31T11:07:11;20.00;99.90
36800;DHT22;22752;51.960;5.886;2023-07-31T11:09:38;20.00;99.90
36800;DHT22;22752;51.960;5.886;2023-07-31T11:12:04;19.90;99.90
36800;DHT22;22752;51.960;5.886;2023-07-31T11:14:30;20.00;99.90
36800;DHT22;22752;51.960;5.886;2023-07-31T11:16:55;19.90;99.90
36800;DHT22;22752;51.960;5.886;2023-07-31T11:19:22;19.90;99.90
36800;DHT22;22752;51.960;5.886;2023-07-31T11:21:49;19.90;99.90
36800;DHT22;22752;51.960;5.886;2023-07-31T11:24:14;19.80;99.90
36800;DHT22;22752;51.960;5.886;2023-07-31T11:26:49;19.70;99.90
36800;DHT22;22752;51.960;5.886;2023-07-31T11:29:15;19.70;99.90
36800;DHT22;22752;51.960;5.886;2023-07-31T11:31:44;19.60;99.90
36800;DHT22;22752;51.960;5.886;2023-07-31T11:34:10;19.60;99.90
36800;DHT22;22752;51.960;5.886;2023-07-31T11:36:35;19.60;99.90
36800;DHT22;22752;51.960;5.886;2023-07-31T11:39:05;19.60;99.90
36800;DHT22;22752;51.960;5.886;2023-07-31T11:41:32;19.60;99.90
36800;DHT22;22752;51.960;5.886;2023-07-31T11:44:00;19.70;99.90
36800;DHT22;22752;51.960;5.886;2023-07-31T11:46:26;19.80;99.90
36800;DHT22;22752;51.960;5.886;2023-07-31T11:48:52;19.90;99.90
36800;DHT22;22752;51.960;5.886;2023-07-31T11:51:24;19.90;99.90
36800;DHT22;22752;51.960;5.886;2023-07-31T11:53:52;19.90;99.90
36800;DHT22;22752;51.960;5.886;2023-07-31T11:56:19;19.90;99.90
36800;DHT22;22752;51.960;5.886;2023-07-31T11:58:47;19.90;99.90
36800;DHT22;22752;51.960;5.886;2023-07-31T12:01:16;19.90;99.90
36800;DHT22;22752;51.960;5.886;2023-07-31T12:03:43;19.90;99.90
36800;DHT22;22752;51.960;5.886;2023-07-31T12:06:09;20.00;99.90
36800;DHT22;22752;51.960;5.886;2023-07-31T12:08:36;19.90;99.90
36800;DHT22;22752;51.960;5.886;2023-07-31T12:11:07;19.90;99.90
36800;DHT22;22752;51.960;5.886;2023-07-31T12:13:34;20.00;99.90
36800;DHT22;22752;51.960;5.886;2023-07-31T12:16:02;20.00;99.90
36800;DHT22;22752;51.960;5.886;2023-07-31T12:18:30;19.90;99.90
36800;DHT22;22752;51.960;5.886;2023-07-31T12:20:57;20.00;99.90
36800;DHT22;22752;51.960;5.886;2023-07-31T12:23:26;20.00;99.90
36800;DHT22;22752;51.960;5.886;2023-07-31T12:26:15;20.10;99.90
36800;DHT22;22752;51.960;5.886;2023-07-31T12:28:49;20.10;99.90
36800;DHT22;22752;51.960;5.886;2023-07-31T12:31:17;20.00;99.90
36800;DHT22;22752;51.960;5.886;2023-07-31T12:33:43;20.00;99.90
36800;DHT22;22752;51.960;5.886;2023-07-31T12:36:11;20.00;99.90
36800;DHT22;22752;51.960;5.886;2023-07-31T12:38:37;20.10;99.90
36800;DHT22;22752;51.960;5.886;2023-07-31T12:41:03;20.00;99.90
36800;DHT22;22752;51.960;5.886;2023-07-31T12:43:29;19.90;99.90
36800;DHT22;22752;51.960;5.886;2023-07-31T12:45:55;19.80;99.90
36800;DHT22;22752;51.960;5.886;2023-07-31T12:48:24;19.70;99.90
36800;DHT22;22752;51.960;5.886;2023-07-31T12:50:50;19.60;99.90
36800;DHT22;22752;51.960;5.886;2023-07-31T12:53:16;19.50;99.90
36800;DHT22;22752;51.960;5.886;2023-07-31T12:55:41;19.50;99.90
36800;DHT22;22752;51.960;5.886;2023-07-31T12:58:07;19.40;99.90
36800;DHT22;22752;51.960;5.886;2023-07-31T13:00:33;19.40;99.90
36800;DHT22;22752;51.960;5.886;2023-07-31T13:02:59;19.40;99.90
36800;DHT22;22752;51.960;5.886;2023-07-31T13:05:26;19.50;99.90
36800;DHT22;22752;51.960;5.886;2023-07-31T13:07:51;19.60;99.90
36800;DHT22;22752;51.960;5.886;2023-07-31T13:10:17;19.70;99.90
36800;DHT22;22752;51.960;5.886;2023-07-31T13:12:43;19.80;99.90
36800;DHT22;22752;51.960;5.886;2023-07-31T13:15:09;20.00;99.90
36800;DHT22;22752;51.960;5.886;2023-07-31T13:17:35;20.10;99.90
36800;DHT22;22752;51.960;5.886;2023-07-31T13:20:01;20.20;99.90
36800;DHT22;22752;51.960;5.886;2023-07-31T13:22:27;20.20;99.90
36800;DHT22;22752;51.960;5.886;2023-07-31T13:24:52;20.20;99.90
36800;DHT22;22752;51.960;5.886;2023-07-31T13:27:18;20.20;99.90
36800;DHT22;22752;51.960;5.886;2023-07-31T13:29:46;20.20;99.90
36800;DHT22;22752;51.960;5.886;2023-07-31T13:32:12;20.30;99.90
36800;DHT22;22752;51.960;5.886;2023-07-31T13:34:37;20.30;99.90
36800;DHT22;22752;51.960;5.886;2023-07-31T13:37:03;20.40;99.90
36800;DHT22;22752;51.960;5.886;2023-07-31T13:39:31;20.40;99.90
36800;DHT22;22752;51.960;5.886;2023-07-31T13:41:57;20.50;99.90
36800;DHT22;22752;51.960;5.886;2023-07-31T13:44:23;20.50;99.90
36800;DHT22;22752;51.960;5.886;2023-07-31T13:46:48;20.40;99.90
36800;DHT22;22752;51.960;5.886;2023-07-31T13:49:14;20.30;99.90
36800;DHT22;22752;51.960;5.886;2023-07-31T13:51:40;20.30;99.90
36800;DHT22;22752;51.960;5.886;2023-07-31T13:54:05;20.20;99.90
36800;DHT22;22752;51.960;5.886;2023-07-31T13:56:34;20.10;99.90
36800;DHT22;22752;51.960;5.886;2023-07-31T13:59:00;20.10;99.90
36800;DHT22;22752;51.960;5.886;2023-07-31T14:01:26;20.10;99.90
36800;DHT22;22752;51.960;5.886;2023-07-31T14:03:52;20.10;99.90
36800;DHT22;22752;51.960;5.886;2023-07-31T14:06:18;20.20;99.90
36800;DHT22;22752;51.960;5.886;2023-07-31T14:08:44;20.20;99.90
36800;DHT22;22752;51.960;5.886;2023-07-31T14:11:10;20.20;99.90
36800;DHT22;22752;51.960;5.886;2023-07-31T14:13:35;20.20;99.90
36800;DHT22;22752;51.960;5.886;2023-07-31T14:16:01;20.10;99.90
36800;DHT22;22752;51.960;5.886;2023-07-31T14:18:27;20.00;99.90
36800;DHT22;22752;51.960;5.886;2023-07-31T14:20:52;19.90;99.90
36800;DHT22;22752;51.960;5.886;2023-07-31T14:23:18;19.90;99.90
36800;DHT22;22752;51.960;5.886;2023-07-31T14:25:45;19.90;99.90
36800;DHT22;22752;51.960;5.886;2023-07-31T14:28:11;19.90;99.90
36800;DHT22;22752;51.960;5.886;2023-07-31T14:30:37;19.90;99.90
36800;DHT22;22752;51.960;5.886;2023-07-31T14:33:02;19.90;99.90
36800;DHT22;22752;51.960;5.886;2023-07-31T14:35:28;19.90;99.90
36800;DHT22;22752;51.960;5.886;2023-07-31T14:37:54;19.90;99.90
36800;DHT22;22752;51.960;5.886;2023-07-31T14:40:19;19.90;99.90
36800;DHT22;22752;51.960;5.886;2023-07-31T14:42:45;19.90;99.90
36800;DHT22;22752;51.960;5.886;2023-07-31T14:45:11;19.90;99.90
36800;DHT22;22752;51.960;5.886;2023-07-31T14:47:37;19.80;99.90
36800;DHT22;22752;51.960;5.886;2023-07-31T14:50:03;19.70;99.90
36800;DHT22;22752;51.960;5.886;2023-07-31T14:52:28;19.70;99.90
36800;DHT22;22752;51.960;5.886;2023-07-31T14:54:54;19.60;99.90
36800;DHT22;22752;51.960;5.886;2023-07-31T14:57:20;19.60;99.90
36800;DHT22;22752;51.960;5.886;2023-07-31T14:59:46;19.50;99.90
36800;DHT22;22752;51.960;5.886;2023-07-31T15:02:12;19.50;99.90
36800;DHT22;22752;51.960;5.886;2023-07-31T15:04:38;19.50;99.90
36800;DHT22;22752;51.960;5.886;2023-07-31T15:07:04;19.40;99.90
36800;DHT22;22752;51.960;5.886;2023-07-31T15:09:30;19.40;99.90
36800;DHT22;22752;51.960;5.886;2023-07-31T15:11:56;19.50;99.90
36800;DHT22;22752;51.960;5.886;2023-07-31T15:14:23;19.50;99.90
36800;DHT22;22752;51.960;5.886;2023-07-31T15:16:49;19.50;99.90
36800;DHT22;22752;51.960;5.886;2023-07-31T15:19:15;19.50;99.90
36800;DHT22;22752;51.960;5.886;2023-07-31T15:21:41;19.50;99.90
36800;DHT22;22752;51.960;5.886;2023-07-31T15:24:07;19.50;99.90
36800;DHT22;22752;51.960;5.886;2023-07-31T15:26:33;19.50;99.90
36800;DHT22;22752;51.960;5.886;2023-07-31T15:29:04;19.50;99.90
36800;DHT22;22752;51.960;5.886;2023-07-31T15:31:34;19.50;99.90
36800;DHT22;22752;51.960;5.886;2023-07-31T15:34:00;19.50;99.90
36800;DHT22;22752;51.960;5.886;2023-07-31T15:36:25;19.40;99.90